Hlavní strana
METAR-TAF:

METAR-TAF

Letiště :

Flores, Azory, Portugalsko

zeměpisná šířka: 39-27N, zeměpisná délka: 031-08W, výška: 28 m

Aktuální stav počasí

Zpráva byla vytvořena před 10 hodinami a 59 minutami, v 18:00 UTC
Severoseverozápadní vítr 18 kt s nárazy do 33 kt, proměnlivý mezi západním a severním
Teplota 13°C
Vlhkost vzduchu 58%
Tlak 1022 hPa
Viditelnost 10 km a více
Polojasno ve výšce 2800 ft
přeháňky v blízkosti

METAR: LPFL 151800Z 33018G33KT 280V360 9999 VCSH SCT028 13/05 Q1022

Čas: 03:59 (04:59 UTC)


TAF: chybějící

Stav a předpovědi počasí z více než 4 000 letišť (zprávy METAR a TAF).

Červené a žluté tečky na mapě představují dostupné meteorologické stanice.

Když kurzor umístíte na tečku, zobrazí se název stanice.

Pak kliknutím zobrazíte stav a předpověď počasí.

Chcete-li změnit mapu, kliknutím na zelené tlačítko se znaménkem +mapu přiblížíte, kliknutím na zelené tlačítko se znaménkem – mapu oddálíte a kliknutím na zelené šipky přejdete na sousední mapy.


METAR-TAF: